sensor_id;sensor_type;location;lat;lon;timestamp;temperature;humidity
76444;DHT22;65282;51.362;10.082;2022-11-20T00:00:28;-6.50;85.50
76444;DHT22;65282;51.362;10.082;2022-11-20T00:03:13;-6.40;87.20
76444;DHT22;65282;51.362;10.082;2022-11-20T00:05:59;-4.80;88.40
76444;DHT22;65282;51.362;10.082;2022-11-20T00:08:45;-6.30;87.20
76444;DHT22;65282;51.362;10.082;2022-11-20T00:11:31;-6.30;86.80
76444;DHT22;65282;51.362;10.082;2022-11-20T00:14:16;-6.30;86.90
76444;DHT22;65282;51.362;10.082;2022-11-20T00:17:00;-6.30;86.80
76444;DHT22;65282;51.362;10.082;2022-11-20T00:19:44;-6.20;87.10
76444;DHT22;65282;51.362;10.082;2022-11-20T00:22:29;-5.90;87.50
76444;DHT22;65282;51.362;10.082;2022-11-20T00:25:13;-6.20;87.40
76444;DHT22;65282;51.362;10.082;2022-11-20T00:27:59;-6.60;87.70
76444;DHT22;65282;51.362;10.082;2022-11-20T00:30:43;-6.00;88.80
76444;DHT22;65282;51.362;10.082;2022-11-20T00:33:28;-6.60;88.70
76444;DHT22;65282;51.362;10.082;2022-11-20T00:36:15;-6.50;88.20
76444;DHT22;65282;51.362;10.082;2022-11-20T00:38:59;-6.20;88.40
76444;DHT22;65282;51.362;10.082;2022-11-20T00:41:44;-6.40;87.60
76444;DHT22;65282;51.362;10.082;2022-11-20T00:44:29;-6.30;86.30
76444;DHT22;65282;51.362;10.082;2022-11-20T00:47:13;-6.30;86.00
76444;DHT22;65282;51.362;10.082;2022-11-20T00:49:57;-6.40;85.90
76444;DHT22;65282;51.362;10.082;2022-11-20T00:52:42;-6.20;86.00
76444;DHT22;65282;51.362;10.082;2022-11-20T00:55:26;-6.50;86.20
76444;DHT22;65282;51.362;10.082;2022-11-20T00:58:11;-6.50;86.70
76444;DHT22;65282;51.362;10.082;2022-11-20T01:01:01;-6.50;85.80
76444;DHT22;65282;51.362;10.082;2022-11-20T01:03:47;-6.40;85.30
76444;DHT22;65282;51.362;10.082;2022-11-20T01:06:33;-6.40;85.30
76444;DHT22;65282;51.362;10.082;2022-11-20T01:09:18;-5.80;85.90
76444;DHT22;65282;51.362;10.082;2022-11-20T01:12:02;-5.80;87.10
76444;DHT22;65282;51.362;10.082;2022-11-20T01:14:47;-6.60;86.20
76444;DHT22;65282;51.362;10.082;2022-11-20T01:17:33;-6.70;86.10
76444;DHT22;65282;51.362;10.082;2022-11-20T01:20:17;-6.30;86.80
76444;DHT22;65282;51.362;10.082;2022-11-20T01:23:02;-6.70;86.60
76444;DHT22;65282;51.362;10.082;2022-11-20T01:25:46;-6.80;86.60
76444;DHT22;65282;51.362;10.082;2022-11-20T01:28:31;-6.80;86.80
76444;DHT22;65282;51.362;10.082;2022-11-20T01:31:17;-6.40;87.20
76444;DHT22;65282;51.362;10.082;2022-11-20T01:34:04;-6.50;86.70
76444;DHT22;65282;51.362;10.082;2022-11-20T01:36:49;-6.80;86.80
76444;DHT22;65282;51.362;10.082;2022-11-20T01:39:33;-6.70;86.50
76444;DHT22;65282;51.362;10.082;2022-11-20T01:42:18;-5.70;86.90
76444;DHT22;65282;51.362;10.082;2022-11-20T01:48:28;-6.80;86.90
76444;DHT22;65282;51.362;10.082;2022-11-20T01:51:19;-6.90;86.30
76444;DHT22;65282;51.362;10.082;2022-11-20T01:54:09;-6.80;86.80
76444;DHT22;65282;51.362;10.082;2022-11-20T01:56:57;-6.90;86.80
76444;DHT22;65282;51.362;10.082;2022-11-20T01:59:50;-6.40;87.30
76444;DHT22;65282;51.362;10.082;2022-11-20T02:02:39;-7.00;87.00
76444;DHT22;65282;51.362;10.082;2022-11-20T02:05:28;-7.10;87.40
76444;DHT22;65282;51.362;10.082;2022-11-20T02:08:15;-6.60;87.90
76444;DHT22;65282;51.362;10.082;2022-11-20T02:11:00;-7.00;87.70
76444;DHT22;65282;51.362;10.082;2022-11-20T02:13:45;-7.00;87.40
76444;DHT22;65282;51.362;10.082;2022-11-20T02:16:31;-7.00;87.00
76444;DHT22;65282;51.362;10.082;2022-11-20T02:19:23;-5.60;88.30
76444;DHT22;65282;51.362;10.082;2022-11-20T02:22:11;-6.80;87.40
76444;DHT22;65282;51.362;10.082;2022-11-20T02:25:00;-7.10;87.20
76444;DHT22;65282;51.362;10.082;2022-11-20T02:27:46;-7.10;87.20
76444;DHT22;65282;51.362;10.082;2022-11-20T02:30:31;-6.40;87.80
76444;DHT22;65282;51.362;10.082;2022-11-20T02:33:16;-6.20;87.10
76444;DHT22;65282;51.362;10.082;2022-11-20T02:36:00;-5.90;86.00
76444;DHT22;65282;51.362;10.082;2022-11-20T02:38:45;-6.80;84.90
76444;DHT22;65282;51.362;10.082;2022-11-20T02:41:36;-5.70;85.30
76444;DHT22;65282;51.362;10.082;2022-11-20T02:44:20;-6.90;84.90
76444;DHT22;65282;51.362;10.082;2022-11-20T02:47:04;-6.50;85.80
76444;DHT22;65282;51.362;10.082;2022-11-20T02:49:48;-7.00;85.70
76444;DHT22;65282;51.362;10.082;2022-11-20T02:52:33;-6.90;86.10
76444;DHT22;65282;51.362;10.082;2022-11-20T02:55:17;-6.40;86.80
76444;DHT22;65282;51.362;10.082;2022-11-20T02:58:03;-7.00;85.80
76444;DHT22;65282;51.362;10.082;2022-11-20T03:00:47;-7.10;85.90
76444;DHT22;65282;51.362;10.082;2022-11-20T03:03:31;-7.10;86.40
76444;DHT22;65282;51.362;10.082;2022-11-20T03:06:16;-7.00;86.90
76444;DHT22;65282;51.362;10.082;2022-11-20T03:09:00;-6.30;87.30
76444;DHT22;65282;51.362;10.082;2022-11-20T03:11:45;-6.60;86.50
76444;DHT22;65282;51.362;10.082;2022-11-20T03:14:30;-7.30;86.70
76444;DHT22;65282;51.362;10.082;2022-11-20T03:17:15;-5.40;88.40
76444;DHT22;65282;51.362;10.082;2022-11-20T03:20:00;-7.00;87.00
76444;DHT22;65282;51.362;10.082;2022-11-20T03:22:44;-8.50;85.80
76444;DHT22;65282;51.362;10.082;2022-11-20T03:25:28;-7.40;86.30
76444;DHT22;65282;51.362;10.082;2022-11-20T03:28:12;-7.40;86.80
76444;DHT22;65282;51.362;10.082;2022-11-20T03:30:58;-7.30;87.40
76444;DHT22;65282;51.362;10.082;2022-11-20T03:33:42;-5.90;87.70
76444;DHT22;65282;51.362;10.082;2022-11-20T03:36:27;-7.40;86.60
76444;DHT22;65282;51.362;10.082;2022-11-20T03:39:12;-7.40;87.00
76444;DHT22;65282;51.362;10.082;2022-11-20T03:41:57;-6.80;87.70
76444;DHT22;65282;51.362;10.082;2022-11-20T03:44:41;-7.50;87.30
76444;DHT22;65282;51.362;10.082;2022-11-20T03:47:26;-7.00;87.50
76444;DHT22;65282;51.362;10.082;2022-11-20T03:50:12;-7.50;87.30
76444;DHT22;65282;51.362;10.082;2022-11-20T03:52:56;-6.20;88.00
76444;DHT22;65282;51.362;10.082;2022-11-20T03:55:41;-7.50;87.60
76444;DHT22;65282;51.362;10.082;2022-11-20T03:58:25;-5.90;89.20
76444;DHT22;65282;51.362;10.082;2022-11-20T04:01:11;-6.80;88.70
76444;DHT22;65282;51.362;10.082;2022-11-20T04:03:56;-6.90;88.30
76444;DHT22;65282;51.362;10.082;2022-11-20T04:06:41;-7.10;88.10
76444;DHT22;65282;51.362;10.082;2022-11-20T04:09:25;-7.60;87.70
76444;DHT22;65282;51.362;10.082;2022-11-20T04:12:09;-7.60;87.20
76444;DHT22;65282;51.362;10.082;2022-11-20T04:14:53;-7.60;87.30
76444;DHT22;65282;51.362;10.082;2022-11-20T04:17:37;-7.60;87.00
76444;DHT22;65282;51.362;10.082;2022-11-20T04:20:23;-6.60;89.50
76444;DHT22;65282;51.362;10.082;2022-11-20T04:23:07;-7.40;90.40
76444;DHT22;65282;51.362;10.082;2022-11-20T04:25:52;-7.30;90.80
76444;DHT22;65282;51.362;10.082;2022-11-20T04:28:37;-7.10;91.00
76444;DHT22;65282;51.362;10.082;2022-11-20T04:31:23;-5.90;91.30
76444;DHT22;65282;51.362;10.082;2022-11-20T04:34:07;-7.00;90.80
76444;DHT22;65282;51.362;10.082;2022-11-20T04:36:53;-5.40;91.30
76444;DHT22;65282;51.362;10.082;2022-11-20T04:39:37;-6.80;90.90
76444;DHT22;65282;51.362;10.082;2022-11-20T04:42:21;-6.90;90.90
76444;DHT22;65282;51.362;10.082;2022-11-20T04:45:06;-6.90;90.90
76444;DHT22;65282;51.362;10.082;2022-11-20T04:47:50;-6.80;91.00
76444;DHT22;65282;51.362;10.082;2022-11-20T04:50:39;-6.80;91.10
76444;DHT22;65282;51.362;10.082;2022-11-20T04:53:25;-6.80;91.20
76444;DHT22;65282;51.362;10.082;2022-11-20T04:56:11;-6.80;91.20
76444;DHT22;65282;51.362;10.082;2022-11-20T04:59:00;-6.70;91.50
76444;DHT22;65282;51.362;10.082;2022-11-20T05:01:44;-6.70;91.30
76444;DHT22;65282;51.362;10.082;2022-11-20T05:04:28;-6.80;91.30
76444;DHT22;65282;51.362;10.082;2022-11-20T05:07:12;-6.80;91.40
76444;DHT22;65282;51.362;10.082;2022-11-20T05:09:58;-5.40;92.00
76444;DHT22;65282;51.362;10.082;2022-11-20T05:12:42;-6.80;91.70
76444;DHT22;65282;51.362;10.082;2022-11-20T05:15:26;-6.80;91.70
76444;DHT22;65282;51.362;10.082;2022-11-20T05:18:10;-5.80;91.90
76444;DHT22;65282;51.362;10.082;2022-11-20T05:20:55;-6.80;91.60
76444;DHT22;65282;51.362;10.082;2022-11-20T05:23:40;-6.70;91.60
76444;DHT22;65282;51.362;10.082;2022-11-20T05:26:26;-6.80;91.50
76444;DHT22;65282;51.362;10.082;2022-11-20T05:29:11;-6.70;91.50
76444;DHT22;65282;51.362;10.082;2022-11-20T05:31:56;-6.00;91.80
76444;DHT22;65282;51.362;10.082;2022-11-20T05:34:40;-6.30;91.70
76444;DHT22;65282;51.362;10.082;2022-11-20T05:37:24;-6.20;91.50
76444;DHT22;65282;51.362;10.082;2022-11-20T05:40:09;-6.30;91.30
76444;DHT22;65282;51.362;10.082;2022-11-20T05:42:55;-6.20;91.10
76444;DHT22;65282;51.362;10.082;2022-11-20T05:45:39;-6.00;90.90
76444;DHT22;65282;51.362;10.082;2022-11-20T05:48:23;-6.00;90.60
76444;DHT22;65282;51.362;10.082;2022-11-20T05:51:09;-5.60;90.50
76444;DHT22;65282;51.362;10.082;2022-11-20T05:53:56;-5.90;90.10
76444;DHT22;65282;51.362;10.082;2022-11-20T05:56:40;-4.80;90.10
76444;DHT22;65282;51.362;10.082;2022-11-20T05:59:26;-5.70;89.10
76444;DHT22;65282;51.362;10.082;2022-11-20T06:02:10;-4.60;89.50
76444;DHT22;65282;51.362;10.082;2022-11-20T06:04:54;-5.20;89.40
76444;DHT22;65282;51.362;10.082;2022-11-20T06:07:38;-4.40;89.30
76444;DHT22;65282;51.362;10.082;2022-11-20T06:10:22;-5.60;87.30
76444;DHT22;65282;51.362;10.082;2022-11-20T06:13:06;-5.50;87.10
76444;DHT22;65282;51.362;10.082;2022-11-20T06:15:53;-5.40;86.70
76444;DHT22;65282;51.362;10.082;2022-11-20T06:18:37;-5.10;86.40
76444;DHT22;65282;51.362;10.082;2022-11-20T06:21:22;-5.40;86.10
76444;DHT22;65282;51.362;10.082;2022-11-20T06:24:09;-5.40;86.00
76444;DHT22;65282;51.362;10.082;2022-11-20T06:26:53;-5.40;86.10
76444;DHT22;65282;51.362;10.082;2022-11-20T06:29:37;-5.30;86.00
76444;DHT22;65282;51.362;10.082;2022-11-20T06:32:23;-4.60;86.10
76444;DHT22;65282;51.362;10.082;2022-11-20T06:35:07;-5.10;85.90
76444;DHT22;65282;51.362;10.082;2022-11-20T06:37:52;-5.10;86.00
76444;DHT22;65282;51.362;10.082;2022-11-20T06:40:39;-4.50;86.10
76444;DHT22;65282;51.362;10.082;2022-11-20T06:43:24;-4.80;85.50
76444;DHT22;65282;51.362;10.082;2022-11-20T06:46:11;-4.70;85.20
76444;DHT22;65282;51.362;10.082;2022-11-20T06:48:56;-4.60;84.80
76444;DHT22;65282;51.362;10.082;2022-11-20T06:51:40;-4.50;85.00
76444;DHT22;65282;51.362;10.082;2022-11-20T06:54:25;-4.60;84.50
76444;DHT22;65282;51.362;10.082;2022-11-20T06:57:09;-4.50;84.80
76444;DHT22;65282;51.362;10.082;2022-11-20T06:59:53;-4.40;84.90
76444;DHT22;65282;51.362;10.082;2022-11-20T07:02:37;-3.60;85.30
76444;DHT22;65282;51.362;10.082;2022-11-20T07:05:22;-4.40;84.60
76444;DHT22;65282;51.362;10.082;2022-11-20T07:08:06;-4.30;84.20
76444;DHT22;65282;51.362;10.082;2022-11-20T07:10:51;-4.20;84.00
76444;DHT22;65282;51.362;10.082;2022-11-20T07:13:35;-3.10;84.40
76444;DHT22;65282;51.362;10.082;2022-11-20T07:16:19;-4.00;83.60
76444;DHT22;65282;51.362;10.082;2022-11-20T07:19:03;-4.00;83.20
76444;DHT22;65282;51.362;10.082;2022-11-20T07:21:49;-3.80;83.30
76444;DHT22;65282;51.362;10.082;2022-11-20T07:24:33;-3.70;82.80
76444;DHT22;65282;51.362;10.082;2022-11-20T07:27:17;-3.60;82.70
76444;DHT22;65282;51.362;10.082;2022-11-20T07:30:02;-3.70;82.80
76444;DHT22;65282;51.362;10.082;2022-11-20T07:32:47;-3.70;82.80
76444;DHT22;65282;51.362;10.082;2022-11-20T07:35:31;-3.70;83.30
76444;DHT22;65282;51.362;10.082;2022-11-20T07:38:17;-3.60;83.20
76444;DHT22;65282;51.362;10.082;2022-11-20T07:41:01;-3.40;82.90
76444;DHT22;65282;51.362;10.082;2022-11-20T07:43:45;-3.30;82.40
76444;DHT22;65282;51.362;10.082;2022-11-20T07:46:29;-3.20;82.10
76444;DHT22;65282;51.362;10.082;2022-11-20T07:49:14;-3.20;81.90
76444;DHT22;65282;51.362;10.082;2022-11-20T07:51:58;-3.10;82.00
76444;DHT22;65282;51.362;10.082;2022-11-20T07:54:43;-3.00;81.80
76444;DHT22;65282;51.362;10.082;2022-11-20T07:57:28;-2.80;81.70
76444;DHT22;65282;51.362;10.082;2022-11-20T08:00:13;-2.70;81.20
76444;DHT22;65282;51.362;10.082;2022-11-20T08:02:57;-2.60;80.40
76444;DHT22;65282;51.362;10.082;2022-11-20T08:05:42;-1.60;80.80
76444;DHT22;65282;51.362;10.082;2022-11-20T08:08:26;-2.80;81.00
76444;DHT22;65282;51.362;10.082;2022-11-20T08:11:11;-2.70;80.80
76444;DHT22;65282;51.362;10.082;2022-11-20T08:13:55;-2.70;81.10
76444;DHT22;65282;51.362;10.082;2022-11-20T08:16:40;-2.60;81.60
76444;DHT22;65282;51.362;10.082;2022-11-20T08:19:24;-2.40;80.70
76444;DHT22;65282;51.362;10.082;2022-11-20T08:22:09;-2.50;81.50
76444;DHT22;65282;51.362;10.082;2022-11-20T08:24:53;-2.40;82.20
76444;DHT22;65282;51.362;10.082;2022-11-20T08:27:38;-2.20;82.80
76444;DHT22;65282;51.362;10.082;2022-11-20T08:30:22;-2.00;82.80
76444;DHT22;65282;51.362;10.082;2022-11-20T08:33:08;-2.10;82.60
76444;DHT22;65282;51.362;10.082;2022-11-20T08:35:53;-2.10;83.40
76444;DHT22;65282;51.362;10.082;2022-11-20T08:38:37;-2.00;84.30
76444;DHT22;65282;51.362;10.082;2022-11-20T08:41:21;-1.70;84.00
76444;DHT22;65282;51.362;10.082;2022-11-20T08:44:07;-1.60;83.70
76444;DHT22;65282;51.362;10.082;2022-11-20T08:46:52;-1.50;82.50
76444;DHT22;65282;51.362;10.082;2022-11-20T08:49:36;-1.50;82.70
76444;DHT22;65282;51.362;10.082;2022-11-20T08:52:20;-1.40;83.00
76444;DHT22;65282;51.362;10.082;2022-11-20T08:55:06;-1.40;83.00
76444;DHT22;65282;51.362;10.082;2022-11-20T08:57:50;-1.10;83.00
76444;DHT22;65282;51.362;10.082;2022-11-20T09:00:36;-1.00;82.60
76444;DHT22;65282;51.362;10.082;2022-11-20T09:03:20;-0.90;81.90
76444;DHT22;65282;51.362;10.082;2022-11-20T09:06:06;-0.70;80.80
76444;DHT22;65282;51.362;10.082;2022-11-20T09:08:52;-0.60;79.90
76444;DHT22;65282;51.362;10.082;2022-11-20T09:11:46;-0.40;78.80
76444;DHT22;65282;51.362;10.082;2022-11-20T09:14:30;-0.30;78.10
76444;DHT22;65282;51.362;10.082;2022-11-20T09:17:16;-0.30;78.20
76444;DHT22;65282;51.362;10.082;2022-11-20T09:20:00;-0.40;78.30
76444;DHT22;65282;51.362;10.082;2022-11-20T09:22:44;-0.30;77.90
76444;DHT22;65282;51.362;10.082;2022-11-20T09:25:28;-0.30;78.00
76444;DHT22;65282;51.362;10.082;2022-11-20T09:28:12;-0.40;78.70
76444;DHT22;65282;51.362;10.082;2022-11-20T09:30:57;-0.50;79.30
76444;DHT22;65282;51.362;10.082;2022-11-20T09:33:42;-0.50;79.40
76444;DHT22;65282;51.362;10.082;2022-11-20T09:36:27;-0.50;78.80
76444;DHT22;65282;51.362;10.082;2022-11-20T09:39:13;-0.50;79.30
76444;DHT22;65282;51.362;10.082;2022-11-20T09:42:20;-0.50;79.60
76444;DHT22;65282;51.362;10.082;2022-11-20T09:45:23;-0.60;80.00
76444;DHT22;65282;51.362;10.082;2022-11-20T09:48:20;-0.60;80.00
76444;DHT22;65282;51.362;10.082;2022-11-20T09:51:19;-0.50;80.20
76444;DHT22;65282;51.362;10.082;2022-11-20T09:54:13;-0.60;80.00
76444;DHT22;65282;51.362;10.082;2022-11-20T09:57:00;-0.60;79.50
76444;DHT22;65282;51.362;10.082;2022-11-20T09:59:48;-0.70;80.10
76444;DHT22;65282;51.362;10.082;2022-11-20T10:02:37;-0.60;80.50
76444;DHT22;65282;51.362;10.082;2022-11-20T10:05:28;-0.40;79.70
76444;DHT22;65282;51.362;10.082;2022-11-20T10:08:19;0.10;78.80
76444;DHT22;65282;51.362;10.082;2022-11-20T10:11:13;1.20;74.10
76444;DHT22;65282;51.362;10.082;2022-11-20T10:14:08;2.80;68.40
76444;DHT22;65282;51.362;10.082;2022-11-20T10:17:03;4.50;62.30
76444;DHT22;65282;51.362;10.082;2022-11-20T10:20:02;5.60;55.90
76444;DHT22;65282;51.362;10.082;2022-11-20T10:23:12;6.50;54.00
76444;DHT22;65282;51.362;10.082;2022-11-20T10:26:17;9.20;52.30
76444;DHT22;65282;51.362;10.082;2022-11-20T10:29:09;8.30;49.40
76444;DHT22;65282;51.362;10.082;2022-11-20T10:32:00;8.10;48.30
76444;DHT22;65282;51.362;10.082;2022-11-20T10:34:50;9.20;46.60
76444;DHT22;65282;51.362;10.082;2022-11-20T10:37:37;10.50;43.30
76444;DHT22;65282;51.362;10.082;2022-11-20T10:40:33;10.90;41.00
76444;DHT22;65282;51.362;10.082;2022-11-20T10:43:27;12.30;39.30
76444;DHT22;65282;51.362;10.082;2022-11-20T10:46:15;13.10;36.20
76444;DHT22;65282;51.362;10.082;2022-11-20T10:49:00;12.90;36.30
76444;DHT22;65282;51.362;10.082;2022-11-20T10:51:56;13.10;36.00
76444;DHT22;65282;51.362;10.082;2022-11-20T10:54:47;13.80;34.90
76444;DHT22;65282;51.362;10.082;2022-11-20T10:57:46;14.00;35.40
76444;DHT22;65282;51.362;10.082;2022-11-20T11:00:35;14.70;33.80
76444;DHT22;65282;51.362;10.082;2022-11-20T11:03:23;15.10;32.70
76444;DHT22;65282;51.362;10.082;2022-11-20T11:06:13;15.00;33.20
76444;DHT22;65282;51.362;10.082;2022-11-20T11:09:02;14.80;33.00
76444;DHT22;65282;51.362;10.082;2022-11-20T11:11:48;15.60;32.90
76444;DHT22;65282;51.362;10.082;2022-11-20T11:14:42;15.10;32.60
76444;DHT22;65282;51.362;10.082;2022-11-20T11:17:29;16.30;30.40
76444;DHT22;65282;51.362;10.082;2022-11-20T11:20:17;17.10;29.80
76444;DHT22;65282;51.362;10.082;2022-11-20T11:23:01;15.20;28.10
76444;DHT22;65282;51.362;10.082;2022-11-20T11:25:56;16.80;29.70
76444;DHT22;65282;51.362;10.082;2022-11-20T11:28:40;17.80;28.10
76444;DHT22;65282;51.362;10.082;2022-11-20T11:31:27;17.80;27.60
76444;DHT22;65282;51.362;10.082;2022-11-20T11:34:15;18.10;27.20
76444;DHT22;65282;51.362;10.082;2022-11-20T11:37:00;18.70;27.40
76444;DHT22;65282;51.362;10.082;2022-11-20T11:39:46;18.90;26.90
76444;DHT22;65282;51.362;10.082;2022-11-20T11:42:31;19.00;26.10
76444;DHT22;65282;51.362;10.082;2022-11-20T11:45:16;20.00;25.10
76444;DHT22;65282;51.362;10.082;2022-11-20T11:48:02;18.90;25.70
76444;DHT22;65282;51.362;10.082;2022-11-20T11:50:50;18.10;27.00
76444;DHT22;65282;51.362;10.082;2022-11-20T11:53:39;17.90;26.60
76444;DHT22;65282;51.362;10.082;2022-11-20T11:56:25;18.70;26.30
76444;DHT22;65282;51.362;10.082;2022-11-20T11:59:15;17.30;26.70
76444;DHT22;65282;51.362;10.082;2022-11-20T12:02:15;16.70;27.80
76444;DHT22;65282;51.362;10.082;2022-11-20T12:05:12;17.80;27.10
76444;DHT22;65282;51.362;10.082;2022-11-20T12:08:02;16.60;25.80
76444;DHT22;65282;51.362;10.082;2022-11-20T12:10:51;18.60;26.30
76444;DHT22;65282;51.362;10.082;2022-11-20T12:13:44;19.70;25.10
76444;DHT22;65282;51.362;10.082;2022-11-20T12:16:30;19.90;24.50
76444;DHT22;65282;51.362;10.082;2022-11-20T12:19:18;20.10;24.70
76444;DHT22;65282;51.362;10.082;2022-11-20T12:22:12;20.40;24.70
76444;DHT22;65282;51.362;10.082;2022-11-20T12:25:03;21.20;23.70
76444;DHT22;65282;51.362;10.082;2022-11-20T12:28:18;20.10;24.20
76444;DHT22;65282;51.362;10.082;2022-11-20T12:31:19;20.30;24.10
76444;DHT22;65282;51.362;10.082;2022-11-20T12:34:28;20.00;24.80
76444;DHT22;65282;51.362;10.082;2022-11-20T12:37:28;18.80;24.90
76444;DHT22;65282;51.362;10.082;2022-11-20T12:40:27;16.90;28.30
76444;DHT22;65282;51.362;10.082;2022-11-20T12:43:19;15.40;29.30
76444;DHT22;65282;51.362;10.082;2022-11-20T12:46:24;13.20;33.40
76444;DHT22;65282;51.362;10.082;2022-11-20T12:49:19;9.30;40.60
76444;DHT22;65282;51.362;10.082;2022-11-20T12:52:25;7.70;46.20
76444;DHT22;65282;51.362;10.082;2022-11-20T12:55:33;5.60;50.20
76444;DHT22;65282;51.362;10.082;2022-11-20T12:58:24;4.10;54.60
76444;DHT22;65282;51.362;10.082;2022-11-20T13:01:30;3.20;58.20
76444;DHT22;65282;51.362;10.082;2022-11-20T13:04:24;2.60;60.20
76444;DHT22;65282;51.362;10.082;2022-11-20T13:07:16;2.30;62.40
76444;DHT22;65282;51.362;10.082;2022-11-20T13:10:01;2.10;63.40
76444;DHT22;65282;51.362;10.082;2022-11-20T13:12:52;1.90;64.70
76444;DHT22;65282;51.362;10.082;2022-11-20T13:15:48;1.70;65.80
76444;DHT22;65282;51.362;10.082;2022-11-20T13:18:37;1.70;66.70
76444;DHT22;65282;51.362;10.082;2022-11-20T13:21:35;1.60;67.60
76444;DHT22;65282;51.362;10.082;2022-11-20T13:24:23;1.60;67.60
76444;DHT22;65282;51.362;10.082;2022-11-20T13:27:21;1.60;68.10
76444;DHT22;65282;51.362;10.082;2022-11-20T13:30:16;1.50;68.80
76444;DHT22;65282;51.362;10.082;2022-11-20T13:33:06;1.40;68.50
76444;DHT22;65282;51.362;10.082;2022-11-20T13:35:56;1.30;69.00
76444;DHT22;65282;51.362;10.082;2022-11-20T13:38:44;1.30;69.70
76444;DHT22;65282;51.362;10.082;2022-11-20T13:41:31;1.30;70.00
76444;DHT22;65282;51.362;10.082;2022-11-20T13:44:25;1.30;70.40
76444;DHT22;65282;51.362;10.082;2022-11-20T13:47:21;1.30;70.50
76444;DHT22;65282;51.362;10.082;2022-11-20T13:50:09;1.30;70.30
76444;DHT22;65282;51.362;10.082;2022-11-20T13:52:58;1.30;70.20
76444;DHT22;65282;51.362;10.082;2022-11-20T13:55:49;1.30;70.20
76444;DHT22;65282;51.362;10.082;2022-11-20T13:58:46;1.20;69.70
76444;DHT22;65282;51.362;10.082;2022-11-20T14:01:35;1.20;68.80
76444;DHT22;65282;51.362;10.082;2022-11-20T14:04:26;1.10;69.10
76444;DHT22;65282;51.362;10.082;2022-11-20T14:07:11;1.10;69.90
76444;DHT22;65282;51.362;10.082;2022-11-20T14:09:57;1.00;70.60
76444;DHT22;65282;51.362;10.082;2022-11-20T14:12:41;0.90;71.00
76444;DHT22;65282;51.362;10.082;2022-11-20T14:15:28;1.00;71.60
76444;DHT22;65282;51.362;10.082;2022-11-20T14:18:14;0.90;72.60
76444;DHT22;65282;51.362;10.082;2022-11-20T14:21:01;0.90;73.00
76444;DHT22;65282;51.362;10.082;2022-11-20T14:23:46;0.80;74.10
76444;DHT22;65282;51.362;10.082;2022-11-20T14:26:30;0.70;75.20
76444;DHT22;65282;51.362;10.082;2022-11-20T14:29:16;0.50;76.20
76444;DHT22;65282;51.362;10.082;2022-11-20T14:32:02;0.40;77.00
76444;DHT22;65282;51.362;10.082;2022-11-20T14:34:48;0.30;77.90
76444;DHT22;65282;51.362;10.082;2022-11-20T14:37:37;0.30;78.20
76444;DHT22;65282;51.362;10.082;2022-11-20T14:40:25;0.30;78.60
76444;DHT22;65282;51.362;10.082;2022-11-20T14:43:19;1.30;79.50
76444;DHT22;65282;51.362;10.082;2022-11-20T14:46:05;0.20;79.10
76444;DHT22;65282;51.362;10.082;2022-11-20T14:48:53;0.10;79.40
76444;DHT22;65282;51.362;10.082;2022-11-20T14:51:38;0.00;80.80
76444;DHT22;65282;51.362;10.082;2022-11-20T14:54:24;0.00;80.50
76444;DHT22;65282;51.362;10.082;2022-11-20T14:57:21;-0.10;80.90
76444;DHT22;65282;51.362;10.082;2022-11-20T15:00:19;-0.20;81.30
76444;DHT22;65282;51.362;10.082;2022-11-20T15:03:15;-0.30;81.60
76444;DHT22;65282;51.362;10.082;2022-11-20T15:06:00;-0.30;81.60
76444;DHT22;65282;51.362;10.082;2022-11-20T15:08:50;-0.30;81.30
76444;DHT22;65282;51.362;10.082;2022-11-20T15:11:36;-0.40;81.10
76444;DHT22;65282;51.362;10.082;2022-11-20T15:14:20;-0.40;81.40
76444;DHT22;65282;51.362;10.082;2022-11-20T15:17:07;-0.50;81.80
76444;DHT22;65282;51.362;10.082;2022-11-20T15:19:53;-0.50;82.10
76444;DHT22;65282;51.362;10.082;2022-11-20T15:22:39;-0.50;81.80
76444;DHT22;65282;51.362;10.082;2022-11-20T15:25:23;-0.40;81.70
76444;DHT22;65282;51.362;10.082;2022-11-20T15:28:16;-0.50;81.60
76444;DHT22;65282;51.362;10.082;2022-11-20T15:31:01;-0.50;81.80
76444;DHT22;65282;51.362;10.082;2022-11-20T15:33:46;-0.50;81.70
76444;DHT22;65282;51.362;10.082;2022-11-20T15:36:31;-0.50;81.50
76444;DHT22;65282;51.362;10.082;2022-11-20T15:39:15;-0.40;81.10
76444;DHT22;65282;51.362;10.082;2022-11-20T15:41:59;-0.40;81.40
76444;DHT22;65282;51.362;10.082;2022-11-20T15:44:44;-0.40;81.40
76444;DHT22;65282;51.362;10.082;2022-11-20T15:47:31;-0.40;81.20
76444;DHT22;65282;51.362;10.082;2022-11-20T15:50:17;-0.30;81.00
76444;DHT22;65282;51.362;10.082;2022-11-20T15:53:01;-0.30;80.90
76444;DHT22;65282;51.362;10.082;2022-11-20T15:55:45;-0.30;80.70
76444;DHT22;65282;51.362;10.082;2022-11-20T15:58:29;-0.20;80.60
76444;DHT22;65282;51.362;10.082;2022-11-20T16:01:17;-0.20;80.60
76444;DHT22;65282;51.362;10.082;2022-11-20T16:04:01;-0.20;80.70
76444;DHT22;65282;51.362;10.082;2022-11-20T16:06:46;-0.20;80.90
76444;DHT22;65282;51.362;10.082;2022-11-20T16:09:30;-0.20;81.60
76444;DHT22;65282;51.362;10.082;2022-11-20T16:12:14;-0.20;81.60
76444;DHT22;65282;51.362;10.082;2022-11-20T16:14:58;-0.20;82.60
76444;DHT22;65282;51.362;10.082;2022-11-20T16:17:44;-0.10;81.90
76444;DHT22;65282;51.362;10.082;2022-11-20T16:20:28;-0.10;81.70
76444;DHT22;65282;51.362;10.082;2022-11-20T16:23:12;-0.10;82.10
76444;DHT22;65282;51.362;10.082;2022-11-20T16:25:57;-0.10;82.10
76444;DHT22;65282;51.362;10.082;2022-11-20T16:28:41;0.00;82.00
76444;DHT22;65282;51.362;10.082;2022-11-20T16:31:25;0.00;81.60
76444;DHT22;65282;51.362;10.082;2022-11-20T16:34:11;0.10;81.40
76444;DHT22;65282;51.362;10.082;2022-11-20T16:36:56;0.10;81.40
76444;DHT22;65282;51.362;10.082;2022-11-20T16:39:40;0.10;81.90
76444;DHT22;65282;51.362;10.082;2022-11-20T16:42:24;0.20;81.20
76444;DHT22;65282;51.362;10.082;2022-11-20T16:45:09;0.20;80.90
76444;DHT22;65282;51.362;10.082;2022-11-20T16:47:53;0.30;80.60
76444;DHT22;65282;51.362;10.082;2022-11-20T16:50:45;0.40;80.70
76444;DHT22;65282;51.362;10.082;2022-11-20T16:53:32;0.40;79.70
76444;DHT22;65282;51.362;10.082;2022-11-20T16:56:18;0.50;79.60
76444;DHT22;65282;51.362;10.082;2022-11-20T16:59:03;0.50;79.50
76444;DHT22;65282;51.362;10.082;2022-11-20T17:01:47;0.50;79.50
76444;DHT22;65282;51.362;10.082;2022-11-20T17:04:32;0.50;80.10
76444;DHT22;65282;51.362;10.082;2022-11-20T17:07:17;0.50;80.30
76444;DHT22;65282;51.362;10.082;2022-11-20T17:10:02;0.50;80.60
76444;DHT22;65282;51.362;10.082;2022-11-20T17:12:46;0.50;80.90
76444;DHT22;65282;51.362;10.082;2022-11-20T17:15:31;0.50;81.20
76444;DHT22;65282;51.362;10.082;2022-11-20T17:18:15;0.50;80.70
76444;DHT22;65282;51.362;10.082;2022-11-20T17:20:59;0.50;80.50
76444;DHT22;65282;51.362;10.082;2022-11-20T17:23:46;0.40;81.00
76444;DHT22;65282;51.362;10.082;2022-11-20T17:26:30;0.40;81.40